sensor_id;sensor_type;location;lat;lon;timestamp;pressure;altitude;pressure_sealevel;temperature
51149;BMP280;37210;50.058;8.688;2023-07-28T00:00:24;99260.31;;;19.50
51149;BMP280;37210;50.058;8.688;2023-07-28T00:02:54;99322.31;;;19.81
51149;BMP280;37210;50.058;8.688;2023-07-28T00:05:22;99273.34;;;19.54
51149;BMP280;37210;50.058;8.688;2023-07-28T00:07:51;99341.66;;;19.83
51149;BMP280;37210;50.058;8.688;2023-07-28T00:10:19;99335.09;;;19.90
51149;BMP280;37210;50.058;8.688;2023-07-28T00:12:47;99356.53;;;20.03
51149;BMP280;37210;50.058;8.688;2023-07-28T00:15:14;99277.94;;;19.34
51149;BMP280;37210;50.058;8.688;2023-07-28T00:17:42;99335.59;;;19.81
51149;BMP280;37210;50.058;8.688;2023-07-28T00:20:11;99257.06;;;19.26
51149;BMP280;37210;50.058;8.688;2023-07-28T00:22:41;99290.03;;;19.56
51149;BMP280;37210;50.058;8.688;2023-07-28T00:25:10;99345.69;;;19.90
51149;BMP280;37210;50.058;8.688;2023-07-28T00:27:38;99345.66;;;19.92
51149;BMP280;37210;50.058;8.688;2023-07-28T00:30:06;99307.09;;;19.68
51149;BMP280;37210;50.058;8.688;2023-07-28T00:32:34;99340.03;;;19.81
51149;BMP280;37210;50.058;8.688;2023-07-28T00:35:06;99250.91;;;19.26
51149;BMP280;37210;50.058;8.688;2023-07-28T00:37:37;99271.69;;;19.52
51149;BMP280;37210;50.058;8.688;2023-07-28T00:40:11;99242.34;;;19.55
51149;BMP280;37210;50.058;8.688;2023-07-28T00:42:39;99328.63;;;19.96
51149;BMP280;37210;50.058;8.688;2023-07-28T00:45:08;99344.34;;;20.16
51149;BMP280;37210;50.058;8.688;2023-07-28T00:47:36;99229.59;;;19.46
51149;BMP280;37210;50.058;8.688;2023-07-28T00:50:05;99344.50;;;20.13
51149;BMP280;37210;50.058;8.688;2023-07-28T00:52:35;99253.50;;;19.27
51149;BMP280;37210;50.058;8.688;2023-07-28T00:55:03;99232.06;;;19.14
51149;BMP280;37210;50.058;8.688;2023-07-28T00:57:34;99224.88;;;18.99
51149;BMP280;37210;50.058;8.688;2023-07-28T01:00:03;99306.09;;;19.70
51149;BMP280;37210;50.058;8.688;2023-07-28T01:02:32;99327.22;;;19.89
51149;BMP280;37210;50.058;8.688;2023-07-28T01:05:00;99284.94;;;19.69
51149;BMP280;37210;50.058;8.688;2023-07-28T01:07:35;99319.63;;;19.99
51149;BMP280;37210;50.058;8.688;2023-07-28T01:10:07;99291.63;;;19.76
51149;BMP280;37210;50.058;8.688;2023-07-28T01:12:39;99256.59;;;19.69
51149;BMP280;37210;50.058;8.688;2023-07-28T01:15:07;99276.56;;;19.76
51149;BMP280;37210;50.058;8.688;2023-07-28T01:17:37;99192.63;;;19.08
51149;BMP280;37210;50.058;8.688;2023-07-28T01:20:06;99306.75;;;19.91
51149;BMP280;37210;50.058;8.688;2023-07-28T01:22:56;99268.47;;;19.79
51149;BMP280;37210;50.058;8.688;2023-07-28T01:25:48;99326.53;;;20.18
51149;BMP280;37210;50.058;8.688;2023-07-28T01:28:24;99233.00;;;19.65
51149;BMP280;37210;50.058;8.688;2023-07-28T01:30:52;99293.06;;;19.66
51149;BMP280;37210;50.058;8.688;2023-07-28T01:33:20;99306.44;;;19.80
51149;BMP280;37210;50.058;8.688;2023-07-28T01:35:47;99249.06;;;19.62
51149;BMP280;37210;50.058;8.688;2023-07-28T01:38:15;99287.41;;;19.89
51149;BMP280;37210;50.058;8.688;2023-07-28T01:40:43;99242.66;;;19.49
51149;BMP280;37210;50.058;8.688;2023-07-28T01:43:10;99314.69;;;19.75
51149;BMP280;37210;50.058;8.688;2023-07-28T01:45:43;99315.34;;;19.96
51149;BMP280;37210;50.058;8.688;2023-07-28T01:48:10;99305.91;;;19.73
51149;BMP280;37210;50.058;8.688;2023-07-28T01:50:38;99296.16;;;19.91
51149;BMP280;37210;50.058;8.688;2023-07-28T01:53:06;99204.31;;;19.04
51149;BMP280;37210;50.058;8.688;2023-07-28T01:55:35;99327.31;;;19.87
51149;BMP280;37210;50.058;8.688;2023-07-28T01:58:02;99255.69;;;19.53
51149;BMP280;37210;50.058;8.688;2023-07-28T02:00:30;99192.44;;;19.29
51149;BMP280;37210;50.058;8.688;2023-07-28T02:02:59;99166.34;;;19.21
51149;BMP280;37210;50.058;8.688;2023-07-28T02:05:28;99222.53;;;19.28
51149;BMP280;37210;50.058;8.688;2023-07-28T02:07:56;99245.56;;;19.44
51149;BMP280;37210;50.058;8.688;2023-07-28T02:10:29;99183.31;;;19.17
51149;BMP280;37210;50.058;8.688;2023-07-28T02:12:57;99228.63;;;19.47
51149;BMP280;37210;50.058;8.688;2023-07-28T02:15:25;99272.56;;;19.52
51149;BMP280;37210;50.058;8.688;2023-07-28T02:17:52;99253.03;;;19.53
51149;BMP280;37210;50.058;8.688;2023-07-28T02:20:21;99331.78;;;20.03
51149;BMP280;37210;50.058;8.688;2023-07-28T02:22:52;99242.91;;;19.44
51149;BMP280;37210;50.058;8.688;2023-07-28T02:25:20;99243.00;;;19.43
51149;BMP280;37210;50.058;8.688;2023-07-28T02:27:47;99314.50;;;19.96
51149;BMP280;37210;50.058;8.688;2023-07-28T02:30:17;99232.06;;;19.49
51149;BMP280;37210;50.058;8.688;2023-07-28T02:32:45;99339.97;;;20.15
51149;BMP280;37210;50.058;8.688;2023-07-28T02:35:12;99295.38;;;19.89
51149;BMP280;37210;50.058;8.688;2023-07-28T02:37:41;99278.38;;;19.76
51149;BMP280;37210;50.058;8.688;2023-07-28T02:40:10;99196.19;;;19.25
51149;BMP280;37210;50.058;8.688;2023-07-28T02:42:39;99332.38;;;19.92
51149;BMP280;37210;50.058;8.688;2023-07-28T02:45:07;99281.03;;;19.76
51149;BMP280;37210;50.058;8.688;2023-07-28T02:47:37;99327.28;;;20.05
51149;BMP280;37210;50.058;8.688;2023-07-28T02:50:06;99203.44;;;19.38
51149;BMP280;37210;50.058;8.688;2023-07-28T02:52:34;99277.22;;;19.64
51149;BMP280;37210;50.058;8.688;2023-07-28T02:55:03;99271.63;;;19.86
51149;BMP280;37210;50.058;8.688;2023-07-28T02:57:31;99233.22;;;19.60
51149;BMP280;37210;50.058;8.688;2023-07-28T03:00:01;99337.81;;;20.23
51149;BMP280;37210;50.058;8.688;2023-07-28T03:02:32;99314.78;;;20.07
51149;BMP280;37210;50.058;8.688;2023-07-28T03:05:02;99297.53;;;19.98
51149;BMP280;37210;50.058;8.688;2023-07-28T03:07:53;99271.75;;;19.67
51149;BMP280;37210;50.058;8.688;2023-07-28T03:10:21;99179.19;;;18.94
51149;BMP280;37210;50.058;8.688;2023-07-28T03:12:49;99281.53;;;19.50
51149;BMP280;37210;50.058;8.688;2023-07-28T03:15:17;99333.63;;;19.85
51149;BMP280;37210;50.058;8.688;2023-07-28T03:17:44;99324.44;;;19.75
51149;BMP280;37210;50.058;8.688;2023-07-28T03:20:12;99324.03;;;19.65
51149;BMP280;37210;50.058;8.688;2023-07-28T03:22:39;99323.78;;;19.87
51149;BMP280;37210;50.058;8.688;2023-07-28T03:25:07;99333.25;;;19.75
51149;BMP280;37210;50.058;8.688;2023-07-28T03:27:36;99322.38;;;19.80
51149;BMP280;37210;50.058;8.688;2023-07-28T03:30:05;99316.97;;;19.99
51149;BMP280;37210;50.058;8.688;2023-07-28T03:32:36;99310.16;;;19.60
51149;BMP280;37210;50.058;8.688;2023-07-28T03:35:04;99324.56;;;19.89
51149;BMP280;37210;50.058;8.688;2023-07-28T03:37:38;99328.63;;;19.79
51149;BMP280;37210;50.058;8.688;2023-07-28T03:40:07;99336.81;;;19.91
51149;BMP280;37210;50.058;8.688;2023-07-28T03:42:45;99337.50;;;19.95
51149;BMP280;37210;50.058;8.688;2023-07-28T03:45:13;99326.88;;;19.95
51149;BMP280;37210;50.058;8.688;2023-07-28T03:47:42;99341.56;;;20.02
51149;BMP280;37210;50.058;8.688;2023-07-28T03:50:09;99328.09;;;19.89
51149;BMP280;37210;50.058;8.688;2023-07-28T03:52:36;99328.63;;;19.96
51149;BMP280;37210;50.058;8.688;2023-07-28T03:55:04;99317.56;;;19.71
51149;BMP280;37210;50.058;8.688;2023-07-28T03:57:32;99322.31;;;19.81
51149;BMP280;37210;50.058;8.688;2023-07-28T04:00:01;99328.84;;;19.91
51149;BMP280;37210;50.058;8.688;2023-07-28T04:02:38;99323.00;;;19.85
51149;BMP280;37210;50.058;8.688;2023-07-28T04:05:06;99333.41;;;19.72
51149;BMP280;37210;50.058;8.688;2023-07-28T04:07:34;99324.34;;;19.76
51149;BMP280;37210;50.058;8.688;2023-07-28T04:10:01;99318.63;;;19.84
51149;BMP280;37210;50.058;8.688;2023-07-28T04:12:28;99340.06;;;19.97
51149;BMP280;37210;50.058;8.688;2023-07-28T04:14:56;99340.06;;;19.97
51149;BMP280;37210;50.058;8.688;2023-07-28T04:17:25;99332.75;;;20.02
51149;BMP280;37210;50.058;8.688;2023-07-28T04:19:52;99332.44;;;19.90
51149;BMP280;37210;50.058;8.688;2023-07-28T04:22:19;99352.50;;;19.96
51149;BMP280;37210;50.058;8.688;2023-07-28T04:24:49;99342.41;;;20.03
51149;BMP280;37210;50.058;8.688;2023-07-28T04:27:17;99347.31;;;20.10
51149;BMP280;37210;50.058;8.688;2023-07-28T04:29:45;99359.63;;;20.11
51149;BMP280;37210;50.058;8.688;2023-07-28T04:32:15;99350.91;;;20.09
51149;BMP280;37210;50.058;8.688;2023-07-28T04:34:44;99363.72;;;20.18
51149;BMP280;37210;50.058;8.688;2023-07-28T04:37:14;99358.53;;;20.15
51149;BMP280;37210;50.058;8.688;2023-07-28T04:39:59;99361.97;;;20.17
51149;BMP280;37210;50.058;8.688;2023-07-28T04:42:33;99376.25;;;20.32
51149;BMP280;37210;50.058;8.688;2023-07-28T04:45:00;99366.44;;;20.34
51149;BMP280;37210;50.058;8.688;2023-07-28T04:47:28;99363.72;;;20.35
51149;BMP280;37210;50.058;8.688;2023-07-28T04:49:57;99361.19;;;20.32
51149;BMP280;37210;50.058;8.688;2023-07-28T04:52:42;99378.94;;;20.32
51149;BMP280;37210;50.058;8.688;2023-07-28T04:55:32;99390.66;;;20.28
51149;BMP280;37210;50.058;8.688;2023-07-28T04:58:00;99376.75;;;20.40
51149;BMP280;37210;50.058;8.688;2023-07-28T05:00:37;99372.25;;;20.40
51149;BMP280;37210;50.058;8.688;2023-07-28T05:03:04;99377.44;;;20.43
51149;BMP280;37210;50.058;8.688;2023-07-28T05:05:42;99375.44;;;20.47
51149;BMP280;37210;50.058;8.688;2023-07-28T05:08:11;99376.66;;;20.41
51149;BMP280;37210;50.058;8.688;2023-07-28T05:10:40;99374.00;;;20.41
51149;BMP280;37210;50.058;8.688;2023-07-28T05:13:09;99384.00;;;20.36
51149;BMP280;37210;50.058;8.688;2023-07-28T05:15:37;99386.06;;;20.31
51149;BMP280;37210;50.058;8.688;2023-07-28T05:18:08;99387.50;;;20.21
51149;BMP280;37210;50.058;8.688;2023-07-28T05:20:41;99388.72;;;20.31
51149;BMP280;37210;50.058;8.688;2023-07-28T05:23:12;99396.59;;;20.33
51149;BMP280;37210;50.058;8.688;2023-07-28T05:25:40;99392.72;;;20.38
51149;BMP280;37210;50.058;8.688;2023-07-28T05:28:08;99394.81;;;20.33
51149;BMP280;37210;50.058;8.688;2023-07-28T05:30:38;99394.00;;;20.48
51149;BMP280;37210;50.058;8.688;2023-07-28T05:33:05;99399.34;;;20.31
51149;BMP280;37210;50.058;8.688;2023-07-28T05:35:47;99407.22;;;20.33
51149;BMP280;37210;50.058;8.688;2023-07-28T05:38:15;99411.50;;;20.35
51149;BMP280;37210;50.058;8.688;2023-07-28T05:40:42;99403.53;;;20.35
51149;BMP280;37210;50.058;8.688;2023-07-28T05:43:09;99394.75;;;20.50
51149;BMP280;37210;50.058;8.688;2023-07-28T05:45:37;99403.41;;;20.54
51149;BMP280;37210;50.058;8.688;2023-07-28T05:48:05;99398.53;;;20.62
51149;BMP280;37210;50.058;8.688;2023-07-28T05:50:37;99408.63;;;20.40
51149;BMP280;37210;50.058;8.688;2023-07-28T05:53:06;99404.28;;;20.54
51149;BMP280;37210;50.058;8.688;2023-07-28T05:55:34;99406.78;;;20.40
51149;BMP280;37210;50.058;8.688;2023-07-28T05:58:01;99400.66;;;20.40
51149;BMP280;37210;50.058;8.688;2023-07-28T06:00:28;99400.91;;;20.51
51149;BMP280;37210;50.058;8.688;2023-07-28T06:02:56;99397.16;;;20.55
51149;BMP280;37210;50.058;8.688;2023-07-28T06:05:53;99394.25;;;20.59
51149;BMP280;37210;50.058;8.688;2023-07-28T06:08:21;99395.22;;;20.74
51149;BMP280;37210;50.058;8.688;2023-07-28T06:10:49;99385.44;;;20.75
51149;BMP280;37210;50.058;8.688;2023-07-28T06:13:16;99384.59;;;20.74
51149;BMP280;37210;50.058;8.688;2023-07-28T06:15:44;99399.31;;;21.12
51149;BMP280;37210;50.058;8.688;2023-07-28T06:18:11;99406.31;;;20.98
51149;BMP280;37210;50.058;8.688;2023-07-28T06:20:41;99385.81;;;21.00
51149;BMP280;37210;50.058;8.688;2023-07-28T06:23:09;99399.72;;;21.20
51149;BMP280;37210;50.058;8.688;2023-07-28T06:25:38;99398.97;;;21.34
51149;BMP280;37210;50.058;8.688;2023-07-28T06:28:09;99383.25;;;21.29
51149;BMP280;37210;50.058;8.688;2023-07-28T06:30:37;99410.22;;;21.23
51149;BMP280;37210;50.058;8.688;2023-07-28T06:33:06;99409.81;;;21.45
51149;BMP280;37210;50.058;8.688;2023-07-28T06:35:33;99414.13;;;21.32
51149;BMP280;37210;50.058;8.688;2023-07-28T06:38:01;99406.78;;;21.67
51149;BMP280;37210;50.058;8.688;2023-07-28T06:40:29;99406.34;;;21.74
51149;BMP280;37210;50.058;8.688;2023-07-28T06:42:58;99414.63;;;21.54
51149;BMP280;37210;50.058;8.688;2023-07-28T06:45:25;99403.63;;;21.60
51149;BMP280;37210;50.058;8.688;2023-07-28T06:47:53;99412.16;;;21.81
51149;BMP280;37210;50.058;8.688;2023-07-28T06:50:20;99404.38;;;21.78
51149;BMP280;37210;50.058;8.688;2023-07-28T06:52:48;99418.75;;;22.05
51149;BMP280;37210;50.058;8.688;2023-07-28T06:55:20;99418.28;;;21.83
51149;BMP280;37210;50.058;8.688;2023-07-28T06:57:48;99419.91;;;21.85
51149;BMP280;37210;50.058;8.688;2023-07-28T07:00:18;99422.38;;;21.88
51149;BMP280;37210;50.058;8.688;2023-07-28T07:02:45;99430.38;;;21.88
51149;BMP280;37210;50.058;8.688;2023-07-28T07:05:13;99433.78;;;22.20
51149;BMP280;37210;50.058;8.688;2023-07-28T07:07:41;99432.47;;;22.13
51149;BMP280;37210;50.058;8.688;2023-07-28T07:10:09;99436.78;;;22.30
51149;BMP280;37210;50.058;8.688;2023-07-28T07:12:36;99437.75;;;22.57
51149;BMP280;37210;50.058;8.688;2023-07-28T07:15:05;99439.72;;;22.39
51149;BMP280;37210;50.058;8.688;2023-07-28T07:17:34;99437.19;;;22.66
51149;BMP280;37210;50.058;8.688;2023-07-28T07:20:02;99435.81;;;22.45
51149;BMP280;37210;50.058;8.688;2023-07-28T07:22:29;99431.50;;;22.14
51149;BMP280;37210;50.058;8.688;2023-07-28T07:24:57;99442.97;;;22.44
51149;BMP280;37210;50.058;8.688;2023-07-28T07:27:24;99438.69;;;22.42
51149;BMP280;37210;50.058;8.688;2023-07-28T07:29:52;99440.59;;;22.40
51149;BMP280;37210;50.058;8.688;2023-07-28T07:32:19;99430.56;;;22.59
51149;BMP280;37210;50.058;8.688;2023-07-28T07:34:48;99435.16;;;22.55
51149;BMP280;37210;50.058;8.688;2023-07-28T07:37:15;99439.41;;;22.73
51149;BMP280;37210;50.058;8.688;2023-07-28T07:39:42;99452.06;;;22.84
51149;BMP280;37210;50.058;8.688;2023-07-28T07:42:10;99446.16;;;22.65
51149;BMP280;37210;50.058;8.688;2023-07-28T07:44:39;99455.97;;;22.92
51149;BMP280;37210;50.058;8.688;2023-07-28T07:47:16;99445.19;;;22.94
51149;BMP280;37210;50.058;8.688;2023-07-28T07:49:43;99446.91;;;22.81
51149;BMP280;37210;50.058;8.688;2023-07-28T07:52:12;99463.66;;;22.97
51149;BMP280;37210;50.058;8.688;2023-07-28T07:54:39;99460.56;;;22.90
51149;BMP280;37210;50.058;8.688;2023-07-28T07:57:07;99463.38;;;23.01
51149;BMP280;37210;50.058;8.688;2023-07-28T07:59:37;99447.56;;;22.84
51149;BMP280;37210;50.058;8.688;2023-07-28T08:02:05;99469.22;;;22.94
51149;BMP280;37210;50.058;8.688;2023-07-28T08:04:32;99471.13;;;22.92
51149;BMP280;37210;50.058;8.688;2023-07-28T08:07:00;99451.16;;;22.55
51149;BMP280;37210;50.058;8.688;2023-07-28T08:09:31;99476.91;;;22.70
51149;BMP280;37210;50.058;8.688;2023-07-28T08:11:59;99479.13;;;22.78
51149;BMP280;37210;50.058;8.688;2023-07-28T08:14:27;99475.31;;;22.82
51149;BMP280;37210;50.058;8.688;2023-07-28T08:16:54;99481.38;;;22.70
51149;BMP280;37210;50.058;8.688;2023-07-28T08:19:21;99476.63;;;22.75
51149;BMP280;37210;50.058;8.688;2023-07-28T08:21:49;99482.34;;;22.69
51149;BMP280;37210;50.058;8.688;2023-07-28T08:24:16;99490.66;;;22.92
51149;BMP280;37210;50.058;8.688;2023-07-28T08:26:45;99482.34;;;22.97
51149;BMP280;37210;50.058;8.688;2023-07-28T08:29:13;99486.72;;;22.98
51149;BMP280;37210;50.058;8.688;2023-07-28T08:31:40;99480.91;;;23.34
51149;BMP280;37210;50.058;8.688;2023-07-28T08:34:07;99484.34;;;23.36
51149;BMP280;37210;50.058;8.688;2023-07-28T08:36:35;99478.38;;;23.45
51149;BMP280;37210;50.058;8.688;2023-07-28T08:39:02;99484.59;;;23.72
51149;BMP280;37210;50.058;8.688;2023-07-28T08:41:30;99478.78;;;23.79
51149;BMP280;37210;50.058;8.688;2023-07-28T08:43:59;99473.94;;;23.99
51149;BMP280;37210;50.058;8.688;2023-07-28T08:46:26;99452.94;;;24.07
51149;BMP280;37210;50.058;8.688;2023-07-28T08:48:54;99474.19;;;24.08
51149;BMP280;37210;50.058;8.688;2023-07-28T08:51:22;99478.94;;;24.03
51149;BMP280;37210;50.058;8.688;2023-07-28T08:53:50;99477.13;;;24.30
51149;BMP280;37210;50.058;8.688;2023-07-28T08:56:17;99476.91;;;24.21
51149;BMP280;37210;50.058;8.688;2023-07-28T08:58:45;99480.75;;;24.29
51149;BMP280;37210;50.058;8.688;2023-07-28T09:01:14;99482.91;;;24.37
51149;BMP280;37210;50.058;8.688;2023-07-28T09:03:41;99466.44;;;24.55
51149;BMP280;37210;50.058;8.688;2023-07-28T09:06:09;99470.00;;;24.69
51149;BMP280;37210;50.058;8.688;2023-07-28T09:08:36;99479.06;;;24.66
51149;BMP280;37210;50.058;8.688;2023-07-28T09:11:05;99468.22;;;24.82
51149;BMP280;37210;50.058;8.688;2023-07-28T09:13:37;99478.22;;;25.03
51149;BMP280;37210;50.058;8.688;2023-07-28T09:16:17;99477.28;;;24.79
51149;BMP280;37210;50.058;8.688;2023-07-28T09:18:45;99485.72;;;25.11
51149;BMP280;37210;50.058;8.688;2023-07-28T09:21:17;99411.47;;;24.51
51149;BMP280;37210;50.058;8.688;2023-07-28T09:23:47;99409.78;;;24.88
51149;BMP280;37210;50.058;8.688;2023-07-28T09:26:15;99443.53;;;25.14
51149;BMP280;37210;50.058;8.688;2023-07-28T09:28:44;99330.84;;;24.57
51149;BMP280;37210;50.058;8.688;2023-07-28T09:31:11;99414.91;;;24.79
51149;BMP280;37210;50.058;8.688;2023-07-28T09:33:41;99357.63;;;24.20
51149;BMP280;37210;50.058;8.688;2023-07-28T09:36:13;99489.78;;;25.16
51149;BMP280;37210;50.058;8.688;2023-07-28T09:38:43;99478.63;;;25.22
51149;BMP280;37210;50.058;8.688;2023-07-28T09:41:13;99476.09;;;24.71
51149;BMP280;37210;50.058;8.688;2023-07-28T09:43:41;99438.63;;;24.20
51149;BMP280;37210;50.058;8.688;2023-07-28T09:46:10;99440.44;;;24.32
51149;BMP280;37210;50.058;8.688;2023-07-28T09:48:42;99466.06;;;24.74
51149;BMP280;37210;50.058;8.688;2023-07-28T09:51:17;99432.66;;;24.67
51149;BMP280;37210;50.058;8.688;2023-07-28T09:53:49;99467.91;;;24.74
51149;BMP280;37210;50.058;8.688;2023-07-28T09:56:22;99413.53;;;24.86
51149;BMP280;37210;50.058;8.688;2023-07-28T09:58:56;99386.44;;;24.90
51149;BMP280;37210;50.058;8.688;2023-07-28T10:01:25;99456.25;;;25.23
51149;BMP280;37210;50.058;8.688;2023-07-28T10:03:55;99457.59;;;25.54
51149;BMP280;37210;50.058;8.688;2023-07-28T10:06:23;99442.03;;;25.83
51149;BMP280;37210;50.058;8.688;2023-07-28T10:08:51;99456.16;;;25.85
51149;BMP280;37210;50.058;8.688;2023-07-28T10:11:20;99479.81;;;26.14
51149;BMP280;37210;50.058;8.688;2023-07-28T10:13:51;99468.19;;;26.03
51149;BMP280;37210;50.058;8.688;2023-07-28T10:16:30;99482.31;;;26.05
51149;BMP280;37210;50.058;8.688;2023-07-28T10:19:06;99356.53;;;25.32
51149;BMP280;37210;50.058;8.688;2023-07-28T10:21:39;99357.22;;;25.23
51149;BMP280;37210;50.058;8.688;2023-07-28T10:24:08;99472.06;;;25.75
51149;BMP280;37210;50.058;8.688;2023-07-28T10:26:37;99404.50;;;25.35
51149;BMP280;37210;50.058;8.688;2023-07-28T10:29:10;99385.16;;;25.32
51149;BMP280;37210;50.058;8.688;2023-07-28T10:31:50;99399.88;;;25.50
51149;BMP280;37210;50.058;8.688;2023-07-28T10:34:21;99362.38;;;25.14
51149;BMP280;37210;50.058;8.688;2023-07-28T10:36:56;99476.91;;;25.94
51149;BMP280;37210;50.058;8.688;2023-07-28T10:39:25;99448.81;;;25.76
51149;BMP280;37210;50.058;8.688;2023-07-28T10:42:02;99497.31;;;25.84
51149;BMP280;37210;50.058;8.688;2023-07-28T10:44:31;99488.75;;;25.79
51149;BMP280;37210;50.058;8.688;2023-07-28T10:47:01;99458.69;;;25.75
51149;BMP280;37210;50.058;8.688;2023-07-28T10:49:32;99436.09;;;25.67
51149;BMP280;37210;50.058;8.688;2023-07-28T10:52:07;99460.50;;;25.98
51149;BMP280;37210;50.058;8.688;2023-07-28T10:54:37;99423.84;;;25.99
51149;BMP280;37210;50.058;8.688;2023-07-28T10:57:11;99476.38;;;26.36
51149;BMP280;37210;50.058;8.688;2023-07-28T10:59:39;99486.28;;;26.47
51149;BMP280;37210;50.058;8.688;2023-07-28T11:02:07;99412.94;;;26.13
51149;BMP280;37210;50.058;8.688;2023-07-28T11:04:46;99420.16;;;26.00
51149;BMP280;37210;50.058;8.688;2023-07-28T11:07:15;99458.03;;;25.95
51149;BMP280;37210;50.058;8.688;2023-07-28T11:09:43;99504.38;;;25.85
51149;BMP280;37210;50.058;8.688;2023-07-28T11:12:11;99494.34;;;25.99
51149;BMP280;37210;50.058;8.688;2023-07-28T11:14:38;99478.28;;;25.76
51149;BMP280;37210;50.058;8.688;2023-07-28T11:17:06;99480.91;;;25.65
51149;BMP280;37210;50.058;8.688;2023-07-28T11:19:34;99397.34;;;25.00
51149;BMP280;37210;50.058;8.688;2023-07-28T11:22:04;99478.75;;;25.70
51149;BMP280;37210;50.058;8.688;2023-07-28T11:24:32;99512.38;;;25.74
51149;BMP280;37210;50.058;8.688;2023-07-28T11:27:00;99493.25;;;25.55
51149;BMP280;37210;50.058;8.688;2023-07-28T11:29:29;99432.78;;;24.91
51149;BMP280;37210;50.058;8.688;2023-07-28T11:31:57;99495.25;;;25.15
51149;BMP280;37210;50.058;8.688;2023-07-28T11:34:25;99361.78;;;24.36
51149;BMP280;37210;50.058;8.688;2023-07-28T11:36:53;99496.19;;;25.14
51149;BMP280;37210;50.058;8.688;2023-07-28T11:39:24;99432.88;;;24.77
51149;BMP280;37210;50.058;8.688;2023-07-28T11:41:52;99490.78;;;24.90
51149;BMP280;37210;50.058;8.688;2023-07-28T11:44:23;99418.88;;;24.48
51149;BMP280;37210;50.058;8.688;2023-07-28T11:46:52;99525.53;;;25.28
51149;BMP280;37210;50.058;8.688;2023-07-28T11:49:21;99520.41;;;24.87
51149;BMP280;37210;50.058;8.688;2023-07-28T11:51:52;99398.56;;;24.45
51149;BMP280;37210;50.058;8.688;2023-07-28T11:54:23;99356.78;;;23.67
51149;BMP280;37210;50.058;8.688;2023-07-28T11:56:55;99434.59;;;24.52
51149;BMP280;37210;50.058;8.688;2023-07-28T11:59:24;99503.59;;;25.10
51149;BMP280;37210;50.058;8.688;2023-07-28T12:01:54;99534.09;;;25.20
51149;BMP280;37210;50.058;8.688;2023-07-28T12:04:23;99466.88;;;25.12
51149;BMP280;37210;50.058;8.688;2023-07-28T12:07:02;99482.75;;;24.90
51149;BMP280;37210;50.058;8.688;2023-07-28T12:09:47;99463.06;;;24.91
51149;BMP280;37210;50.058;8.688;2023-07-28T12:12:18;99519.06;;;25.30
51149;BMP280;37210;50.058;8.688;2023-07-28T12:14:49;99494.63;;;24.86
51149;BMP280;37210;50.058;8.688;2023-07-28T12:17:19;99492.47;;;24.91
51149;BMP280;37210;50.058;8.688;2023-07-28T12:20:06;99375.56;;;24.18
51149;BMP280;37210;50.058;8.688;2023-07-28T12:22:37;99483.72;;;24.77
51149;BMP280;37210;50.058;8.688;2023-07-28T12:25:08;99445.03;;;24.18
51149;BMP280;37210;50.058;8.688;2023-07-28T12:27:36;99390.63;;;24.19
51149;BMP280;37210;50.058;8.688;2023-07-28T12:30:05;99515.69;;;25.03
51149;BMP280;37210;50.058;8.688;2023-07-28T12:32:35;99525.97;;;25.22
51149;BMP280;37210;50.058;8.688;2023-07-28T12:35:02;99485.31;;;25.04
51149;BMP280;37210;50.058;8.688;2023-07-28T12:37:34;99503.47;;;25.24
51149;BMP280;37210;50.058;8.688;2023-07-28T12:40:04;99456.16;;;25.12
51149;BMP280;37210;50.058;8.688;2023-07-28T12:42:34;99469.03;;;25.07
51149;BMP280;37210;50.058;8.688;2023-07-28T12:45:05;99467.94;;;24.59
51149;BMP280;37210;50.058;8.688;2023-07-28T12:47:34;99543.53;;;24.76
51149;BMP280;37210;50.058;8.688;2023-07-28T12:50:04;99544.38;;;25.14
51149;BMP280;37210;50.058;8.688;2023-07-28T12:52:33;99546.22;;;24.76
51149;BMP280;37210;50.058;8.688;2023-07-28T12:55:01;99540.75;;;25.02
51149;BMP280;37210;50.058;8.688;2023-07-28T12:57:31;99403.38;;;24.28
51149;BMP280;37210;50.058;8.688;2023-07-28T13:00:00;99493.22;;;24.93
51149;BMP280;37210;50.058;8.688;2023-07-28T13:02:33;99534.94;;;25.21
51149;BMP280;37210;50.058;8.688;2023-07-28T13:05:06;99515.66;;;25.28
51149;BMP280;37210;50.058;8.688;2023-07-28T13:07:36;99537.28;;;25.38
51149;BMP280;37210;50.058;8.688;2023-07-28T13:10:06;99413.09;;;24.54
51149;BMP280;37210;50.058;8.688;2023-07-28T13:12:36;99544.84;;;25.69
51149;BMP280;37210;50.058;8.688;2023-07-28T13:15:09;99543.47;;;25.64
51149;BMP280;37210;50.058;8.688;2023-07-28T13:17:37;99460.44;;;25.27
51149;BMP280;37210;50.058;8.688;2023-07-28T13:20:06;99480.53;;;25.46
51149;BMP280;37210;50.058;8.688;2023-07-28T13:22:35;99384.53;;;24.92
51149;BMP280;37210;50.058;8.688;2023-07-28T13:25:03;99537.72;;;25.81
51149;BMP280;37210;50.058;8.688;2023-07-28T13:27:31;99492.38;;;25.05
51149;BMP280;37210;50.058;8.688;2023-07-28T13:29:59;99521.09;;;25.39
51149;BMP280;37210;50.058;8.688;2023-07-28T13:32:30;99514.28;;;25.23
51149;BMP280;37210;50.058;8.688;2023-07-28T13:34:57;99523.59;;;25.30
51149;BMP280;37210;50.058;8.688;2023-07-28T13:37:25;99512.44;;;25.49
51149;BMP280;37210;50.058;8.688;2023-07-28T13:39:53;99467.72;;;25.25
51149;BMP280;37210;50.058;8.688;2023-07-28T13:42:21;99529.03;;;25.54
51149;BMP280;37210;50.058;8.688;2023-07-28T13:44:51;99524.75;;;25.38
51149;BMP280;37210;50.058;8.688;2023-07-28T13:47:19;99533.19;;;25.58
51149;BMP280;37210;50.058;8.688;2023-07-28T13:49:48;99438.16;;;24.91
51149;BMP280;37210;50.058;8.688;2023-07-28T13:52:15;99425.41;;;24.56
51149;BMP280;37210;50.058;8.688;2023-07-28T13:54:45;99460.47;;;24.65
51149;BMP280;37210;50.058;8.688;2023-07-28T13:57:13;99428.06;;;23.92
51149;BMP280;37210;50.058;8.688;2023-07-28T13:59:41;99444.06;;;24.06
51149;BMP280;37210;50.058;8.688;2023-07-28T14:02:08;99435.38;;;24.03
51149;BMP280;37210;50.058;8.688;2023-07-28T14:04:36;99491.22;;;24.32
51149;BMP280;37210;50.058;8.688;2023-07-28T14:07:05;99538.34;;;24.73
51149;BMP280;37210;50.058;8.688;2023-07-28T14:09:34;99456.38;;;24.21
51149;BMP280;37210;50.058;8.688;2023-07-28T14:12:02;99541.28;;;24.43
51149;BMP280;37210;50.058;8.688;2023-07-28T14:14:31;99451.06;;;23.95
51149;BMP280;37210;50.058;8.688;2023-07-28T14:16:59;99467.44;;;24.03
51149;BMP280;37210;50.058;8.688;2023-07-28T14:19:26;99534.97;;;24.31
51149;BMP280;37210;50.058;8.688;2023-07-28T14:21:54;99548.56;;;24.41